Time;durP1;ratioP1;P1;durP2;ratioP2;P2;SDS_P1;SDS_P2;PMS_P1;PMS_P2;Temp;Humidity;BMP_temperature;BMP_pressure;BME280_temperature;BME280_humidity;BME280_pressure;Samples;Min_cycle;Max_cycle;Signal;HPM_P1;HPM_P2
2023/05/28 00:01:03;;;;;;;44.00;11.55;;;;;;;14.03;100.00;102274.06;5006419;28;20523;-61
2023/05/28 00:03:31;;;;;;;33.92;10.80;;;;;;;13.97;100.00;102279.53;5005160;28;20030;-61
2023/05/28 00:05:57;;;;;;;42.35;11.43;;;;;;;14.02;100.00;102277.63;5005270;28;20060;-62
2023/05/28 00:08:23;;;;;;;33.45;10.63;;;;;;;14.04;100.00;102275.81;5006889;28;20026;-61
2023/05/28 00:10:48;;;;;;;33.10;12.35;;;;;;;14.00;100.00;102280.31;5005417;28;20026;-61
2023/05/28 00:13:14;;;;;;;37.47;12.07;;;;;;;13.97;100.00;102276.88;5005282;28;20116;-61
2023/05/28 00:15:39;;;;;;;33.35;10.55;;;;;;;13.93;100.00;102272.56;5007151;28;20030;-60
2023/05/28 00:18:05;;;;;;;39.50;12.10;;;;;;;13.90;100.00;102278.78;5006479;28;20113;-61
2023/05/28 00:20:30;;;;;;;39.30;11.45;;;;;;;13.94;100.00;102269.00;5006545;28;20087;-60
2023/05/28 00:22:55;;;;;;;35.67;11.52;;;;;;;13.86;100.00;102266.53;5006948;28;20854;-63
2023/05/28 00:25:21;;;;;;;44.55;12.05;;;;;;;13.87;100.00;102262.97;5005941;28;20034;-64
2023/05/28 00:27:46;;;;;;;37.33;11.45;;;;;;;13.88;100.00;102257.63;5015414;28;20065;-61
2023/05/28 00:30:11;;;;;;;35.15;11.48;;;;;;;13.80;100.00;102259.63;5025913;28;20041;-61
2023/05/28 00:32:37;;;;;;;39.08;11.05;;;;;;;13.88;100.00;102251.47;5023294;28;20461;-61
2023/05/28 00:35:02;;;;;;;39.85;12.63;;;;;;;13.84;100.00;102250.69;5006919;28;20038;-61
2023/05/28 00:37:28;;;;;;;30.67;11.15;;;;;;;13.77;100.00;102241.16;5007030;28;20037;-62
2023/05/28 00:39:53;;;;;;;32.65;10.93;;;;;;;13.80;100.00;102243.72;5004752;28;20392;-63
2023/05/28 00:42:18;;;;;;;28.65;10.70;;;;;;;13.85;100.00;102239.16;5005633;28;20030;-62
2023/05/28 00:44:44;;;;;;;43.20;11.77;;;;;;;13.81;100.00;102232.22;5006949;28;20061;-62
2023/05/28 00:47:10;;;;;;;37.42;11.27;;;;;;;13.83;100.00;102225.09;5007048;28;20026;-63
2023/05/28 00:49:35;;;;;;;40.63;11.82;;;;;;;13.76;100.00;102228.81;5006556;28;20085;-63
2023/05/28 00:52:02;;;;;;;43.65;11.80;;;;;;;13.72;100.00;102232.44;5005830;28;20457;-60
2023/05/28 00:54:30;;;;;;;36.88;10.68;;;;;;;13.74;100.00;102230.63;5004672;28;20022;-61
2023/05/28 00:56:57;;;;;;;32.83;11.32;;;;;;;13.70;100.00;102228.97;5010876;28;20076;-61
2023/05/28 00:59:23;;;;;;;29.63;10.88;;;;;;;13.70;100.00;102227.16;5009288;28;20065;-61
2023/05/28 01:01:49;;;;;;;32.50;10.82;;;;;;;13.67;100.00;102231.69;5010756;28;20022;-62
2023/05/28 01:04:14;;;;;;;34.97;10.88;;;;;;;13.63;100.00;102229.13;5011242;28;20099;-62
2023/05/28 01:06:40;;;;;;;30.08;11.30;;;;;;;13.62;100.00;102232.69;5011228;28;20022;-61
2023/05/28 01:09:06;;;;;;;38.30;11.00;;;;;;;13.56;100.00;102221.34;5008934;28;20026;-62
2023/05/28 01:11:32;;;;;;;31.90;11.32;;;;;;;13.57;100.00;102228.41;5081076;23;20443;-61
2023/05/28 01:13:57;;;;;;;36.90;11.30;;;;;;;13.55;100.00;102230.22;5009379;28;20025;-62
2023/05/28 01:16:23;;;;;;;43.53;11.98;;;;;;;13.47;100.00;102214.47;5009914;28;20087;-61
2023/05/28 01:18:48;;;;;;;36.20;11.82;;;;;;;13.45;100.00;102216.31;5010021;28;20096;-62
2023/05/28 01:21:14;;;;;;;36.95;11.75;;;;;;;13.43;100.00;102226.94;5027978;28;20029;-63
2023/05/28 01:23:44;;;;;;;37.95;12.00;;;;;;;13.45;100.00;102230.38;5014200;28;20113;-60
2023/05/28 01:26:14;;;;;;;36.67;10.95;;;;;;;13.40;100.00;102232.28;5009566;28;20026;-62
2023/05/28 01:28:44;;;;;;;37.17;11.82;;;;;;;13.37;100.00;102233.22;5009734;28;20396;-61
2023/05/28 01:31:10;;;;;;;37.35;11.20;;;;;;;13.31;100.00;102236.03;5010758;28;20126;-61
2023/05/28 01:33:36;;;;;;;39.03;11.60;;;;;;;13.17;100.00;102224.88;5009564;28;20026;-61
2023/05/28 01:36:03;;;;;;;39.30;12.35;;;;;;;13.21;100.00;102218.59;5016135;28;20502;-61
2023/05/28 01:38:29;;;;;;;38.80;12.68;;;;;;;13.13;100.00;102224.94;5009936;28;20041;-60
2023/05/28 01:40:55;;;;;;;41.85;12.43;;;;;;;13.07;100.00;102224.22;5027733;28;20034;-60
2023/05/28 01:43:20;;;;;;;41.15;12.60;;;;;;;13.12;100.00;102227.59;5012517;28;20038;-62
2023/05/28 01:45:46;;;;;;;44.38;12.50;;;;;;;13.03;100.00;102228.69;5009531;28;20044;-61
2023/05/28 01:48:11;;;;;;;44.13;12.73;;;;;;;13.01;100.00;102219.94;5009009;28;20034;-60
2023/05/28 01:50:37;;;;;;;39.60;12.15;;;;;;;12.98;100.00;102230.59;4993429;28;20030;-64
2023/05/28 01:53:03;;;;;;;40.08;12.77;;;;;;;12.98;100.00;102239.38;5005053;28;20440;-60
2023/05/28 01:55:28;;;;;;;41.50;13.73;;;;;;;13.04;100.00;102235.75;4988943;28;20031;-63
2023/05/28 01:57:53;;;;;;;44.53;12.38;;;;;;;12.99;100.00;102227.91;5009313;28;20057;-63
2023/05/28 02:00:19;;;;;;;37.22;11.90;;;;;;;13.00;100.00;102229.63;5009065;28;20096;-62
2023/05/28 02:02:45;;;;;;;41.22;12.10;;;;;;;12.95;100.00;102230.66;5007607;28;20026;-60
2023/05/28 02:05:11;;;;;;;43.08;12.95;;;;;;;12.93;100.00;102228.03;5012258;28;20033;-63
2023/05/28 02:07:36;;;;;;;42.25;13.10;;;;;;;12.95;100.00;102225.34;5007949;28;20026;-62
2023/05/28 02:10:02;;;;;;;43.15;12.43;;;;;;;12.92;100.00;102225.41;5008342;28;20041;-59
2023/05/28 02:12:28;;;;;;;38.15;13.02;;;;;;;12.84;100.00;102225.56;5009274;28;20142;-61
2023/05/28 02:14:53;;;;;;;38.17;12.40;;;;;;;12.87;100.00;102221.09;5007971;28;20038;-60
2023/05/28 02:17:19;;;;;;;37.55;12.98;;;;;;;12.86;100.00;102219.34;5008396;28;20399;-61
2023/05/28 02:19:44;;;;;;;41.67;14.55;;;;;;;12.75;100.00;102218.72;5009438;28;20084;-63
2023/05/28 02:22:11;;;;;;;38.30;13.43;;;;;;;12.76;100.00;102209.88;5008498;28;20025;-63
2023/05/28 02:24:38;;;;;;;41.63;13.18;;;;;;;12.81;100.00;102213.28;5008303;28;20383;-63
2023/05/28 02:27:04;;;;;;;46.55;14.30;;;;;;;12.79;100.00;102211.59;5006761;28;20381;-60
2023/05/28 02:29:30;;;;;;;41.30;13.70;;;;;;;12.73;100.00;102216.09;5007643;28;20030;-61
2023/05/28 02:31:55;;;;;;;40.75;13.35;;;;;;;12.77;100.00;102216.91;5009092;28;20041;-61
2023/05/28 02:34:20;;;;;;;39.22;13.38;;;;;;;12.77;100.00;102216.91;5009114;28;20474;-59
2023/05/28 02:36:46;;;;;;;40.85;13.73;;;;;;;12.76;100.00;102223.09;5007067;28;20017;-63
2023/05/28 02:39:11;;;;;;;40.85;13.50;;;;;;;12.74;100.00;102223.13;5009894;28;20029;-60
2023/05/28 02:41:36;;;;;;;45.20;14.23;;;;;;;12.70;100.00;102226.72;5008257;28;20148;-62
2023/05/28 02:44:02;;;;;;;44.88;14.00;;;;;;;12.66;100.00;102221.53;5006698;28;20033;-60
2023/05/28 02:46:27;;;;;;;48.92;15.00;;;;;;;12.64;100.00;102221.56;5009937;28;20026;-60
2023/05/28 02:48:52;;;;;;;44.75;14.45;;;;;;;12.66;100.00;102225.06;5008138;28;20034;-60
2023/05/28 02:51:18;;;;;;;46.08;13.82;;;;;;;12.70;100.00;102233.81;5006798;28;20692;-61
2023/05/28 02:53:43;;;;;;;46.08;14.30;;;;;;;12.68;100.00;102230.31;5008655;28;20485;-63
2023/05/28 02:56:09;;;;;;;46.05;13.30;;;;;;;12.61;100.00;102235.72;5008050;28;20029;-60
2023/05/28 02:58:36;;;;;;;49.67;13.75;;;;;;;12.61;100.00;102232.19;5006344;28;20022;-63
2023/05/28 03:01:02;;;;;;;51.60;14.63;;;;;;;12.60;100.00;102226.06;5008742;28;20513;-62
2023/05/28 03:03:27;;;;;;;49.42;14.57;;;;;;;12.61;100.00;102232.19;5008102;28;20025;-63
2023/05/28 03:05:52;;;;;;;40.42;12.90;;;;;;;12.64;100.00;102234.78;5006422;28;20021;-61
2023/05/28 03:08:18;;;;;;;48.90;14.32;;;;;;;12.61;100.00;102234.84;5008962;28;20037;-59
2023/05/28 03:10:43;;;;;;;49.55;13.65;;;;;;;12.59;100.00;102229.63;5006952;28;20111;-60
2023/05/28 03:13:08;;;;;;;51.97;14.98;;;;;;;12.66;100.00;102232.13;5008570;28;20117;-60
2023/05/28 03:15:35;;;;;;;33.53;13.27;;;;;;;12.61;100.00;102234.84;5009658;28;20025;-60
2023/05/28 03:18:01;;;;;;;51.90;13.63;;;;;;;12.56;100.00;102237.63;5006533;28;20032;-61
2023/05/28 03:20:26;;;;;;;35.58;13.15;;;;;;;12.53;100.00;102228.84;5006776;28;20109;-60
2023/05/28 03:22:56;;;;;;;43.13;13.52;;;;;;;12.53;100.00;102229.75;5009393;28;20474;-62
2023/05/28 03:25:21;;;;;;;44.78;14.25;;;;;;;12.49;100.00;102223.63;5007557;28;20030;-60
2023/05/28 03:27:47;;;;;;;42.53;12.88;;;;;;;12.57;100.00;102231.41;5006688;28;20017;-61
2023/05/28 03:30:14;;;;;;;35.38;13.45;;;;;;;12.46;100.00;102223.69;5008824;28;20030;-65
2023/05/28 03:32:40;;;;;;;44.60;13.60;;;;;;;12.53;100.00;102231.50;5007729;28;20026;-65
2023/05/28 03:35:05;;;;;;;51.83;13.85;;;;;;;12.56;100.00;102228.78;5009190;28;20021;-61
2023/05/28 03:37:31;;;;;;;47.55;13.52;;;;;;;12.49;100.00;102241.25;5006779;28;20026;-61
2023/05/28 03:39:56;;;;;;;41.13;13.70;;;;;;;12.48;100.00;102245.69;5006227;28;20025;-61
2023/05/28 03:42:22;;;;;;;33.03;12.93;;;;;;;12.48;100.00;102237.75;5006960;28;20034;-61
2023/05/28 03:44:47;;;;;;;43.13;14.48;;;;;;;12.52;100.00;102249.13;5006928;28;20029;-60
2023/05/28 03:47:12;;;;;;;37.22;12.93;;;;;;;12.48;100.00;102247.44;5008851;28;20435;-66
2023/05/28 03:49:38;;;;;;;41.38;13.57;;;;;;;12.49;100.00;102238.59;5008196;28;20346;-63
2023/05/28 03:52:04;;;;;;;34.55;12.75;;;;;;;12.52;100.00;102246.47;5007136;28;20143;-61
2023/05/28 03:54:30;;;;;;;49.75;13.48;;;;;;;12.50;100.00;102243.00;5007833;28;20032;-63
2023/05/28 03:56:55;;;;;;;43.10;13.05;;;;;;;12.48;100.00;102234.22;5005715;28;20021;-61
2023/05/28 03:59:20;;;;;;;53.30;13.32;;;;;;;12.50;100.00;102233.28;5012543;28;20069;-62
2023/05/28 04:01:46;;;;;;;38.53;12.55;;;;;;;12.48;100.00;102236.88;5006494;28;20148;-61
2023/05/28 04:04:12;;;;;;;40.45;12.77;;;;;;;12.53;100.00;102237.66;5007251;28;20042;-64
2023/05/28 04:06:37;;;;;;;44.28;14.15;;;;;;;12.50;100.00;102243.00;5026364;28;20114;-61
2023/05/28 04:09:03;;;;;;;37.03;12.27;;;;;;;12.51;100.00;102236.81;5005500;28;20034;-60
2023/05/28 04:11:29;;;;;;;38.53;12.75;;;;;;;12.56;100.00;102245.53;5005170;28;20042;-62
2023/05/28 04:13:55;;;;;;;32.65;12.50;;;;;;;12.49;100.00;102241.25;5007838;28;20070;-61
2023/05/28 04:16:22;;;;;;;44.20;13.45;;;;;;;12.49;100.00;102251.81;5009593;28;20136;-62
2023/05/28 04:18:48;;;;;;;39.17;12.57;;;;;;;12.53;100.00;102245.59;5016630;28;20017;-62
2023/05/28 04:21:14;;;;;;;40.67;13.00;;;;;;;12.51;100.00;102257.97;5026769;28;20042;-61
2023/05/28 04:23:39;;;;;;;35.38;12.80;;;;;;;12.52;100.00;102257.06;5026787;28;20044;-59
2023/05/28 04:26:07;;;;;;;38.60;12.57;;;;;;;12.63;100.00;102263.03;5024814;28;20048;-62
2023/05/28 04:28:33;;;;;;;41.03;12.60;;;;;;;12.53;100.00;102263.22;5027005;28;20031;-62
2023/05/28 04:31:02;;;;;;;39.08;13.15;;;;;;;12.53;100.00;102266.75;5029871;28;20379;-61
2023/05/28 04:33:30;;;;;;;35.63;13.13;;;;;;;12.55;100.00;102269.38;5019612;28;20057;-62
2023/05/28 04:35:57;;;;;;;37.35;12.40;;;;;;;12.66;100.00;102266.50;5031383;28;20029;-62
2023/05/28 04:38:22;;;;;;;35.70;12.57;;;;;;;12.62;100.00;102266.56;5031163;28;20091;-61
2023/05/28 04:40:49;;;;;;;42.03;12.65;;;;;;;12.56;100.00;102265.81;5031247;28;20025;-61
2023/05/28 04:43:15;;;;;;;39.90;12.80;;;;;;;12.59;100.00;102261.34;5022735;28;20018;-60
2023/05/28 04:45:41;;;;;;;35.08;12.20;;;;;;;12.72;100.00;102256.69;5011761;28;20034;-61
2023/05/28 04:48:07;;;;;;;42.20;12.40;;;;;;;12.74;100.00;102259.28;5018136;28;20032;-61
2023/05/28 04:50:33;;;;;;;36.58;11.70;;;;;;;12.82;100.00;102253.84;5030577;28;20116;-61
2023/05/28 04:52:58;;;;;;;41.35;12.27;;;;;;;12.87;100.00;102254.63;5003151;28;20109;-61
2023/05/28 04:55:24;;;;;;;37.20;12.23;;;;;;;12.89;100.00;102258.09;5018030;28;20044;-61
2023/05/28 04:57:49;;;;;;;35.25;11.40;;;;;;;12.93;100.00;102257.13;5029474;28;20084;-62
2023/05/28 05:00:15;;;;;;;33.10;11.10;;;;;;;13.01;100.00;102256.97;5028625;28;20029;-61
2023/05/28 05:02:43;;;;;;;34.28;11.70;;;;;;;13.05;100.00;102258.66;5030619;28;20030;-62
2023/05/28 05:05:08;;;;;;;31.27;11.60;;;;;;;13.03;100.00;102257.78;5029702;28;20512;-60
2023/05/28 05:07:35;;;;;;;29.42;10.10;;;;;;;13.06;100.00;102254.22;5011005;28;20033;-61
2023/05/28 05:10:01;;;;;;;32.00;11.13;;;;;;;13.06;100.00;102263.03;5009605;28;20528;-61
2023/05/28 05:12:26;;;;;;;35.90;10.85;;;;;;;13.23;100.00;102262.66;5007168;28;20100;-62
2023/05/28 05:14:51;;;;;;;28.15;10.57;;;;;;;13.29;100.00;102259.00;5009972;28;20061;-60
2023/05/28 05:17:17;;;;;;;30.73;10.70;;;;;;;13.40;100.00;102256.97;5009497;28;20107;-62
2023/05/28 05:19:42;;;;;;;33.20;10.10;;;;;;;13.50;100.00;102256.78;5009680;28;20093;-65
2023/05/28 05:22:07;;;;;;;24.90;10.30;;;;;;;13.46;100.00;102268.34;5010199;28;20131;-61
2023/05/28 05:24:33;;;;;;;30.23;9.93;;;;;;;13.39;100.00;102268.47;5008536;28;20092;-60
2023/05/28 05:26:58;;;;;;;28.77;9.73;;;;;;;13.56;100.00;102271.66;5013536;28;20026;-61
2023/05/28 05:29:24;;;;;;;27.15;9.15;;;;;;;13.65;100.00;102263.50;5023143;28;20482;-62
2023/05/28 05:31:49;;;;;;;28.75;9.75;;;;;;;13.60;100.00;102268.91;5028785;28;20468;-59
2023/05/28 05:34:15;;;;;;;24.35;9.25;;;;;;;13.74;100.00;102273.00;5029060;28;20032;-62
2023/05/28 05:36:40;;;;;;;30.52;10.13;;;;;;;13.73;100.00;102273.94;5030081;28;20033;-59
2023/05/28 05:39:06;;;;;;;25.42;9.50;;;;;;;13.77;100.00;102267.63;5028437;28;20037;-60
2023/05/28 05:41:31;;;;;;;30.95;9.25;;;;;;;13.91;100.00;102280.56;5027678;28;20057;-64
2023/05/28 05:43:56;;;;;;;29.80;8.63;;;;;;;14.03;100.00;102274.06;5029125;28;20072;-61
2023/05/28 05:46:22;;;;;;;19.50;7.47;;;;;;;14.09;100.00;102273.03;5028836;28;20029;-62
2023/05/28 05:48:47;;;;;;;21.90;8.20;;;;;;;14.22;100.00;102278.88;5028604;28;20017;-59
2023/05/28 05:51:18;;;;;;;20.85;8.15;;;;;;;14.37;100.00;102273.19;5027543;28;20098;-63
2023/05/28 05:53:43;;;;;;;24.65;8.20;;;;;;;14.35;100.00;102276.75;5029971;28;20379;-62
2023/05/28 05:56:09;;;;;;;23.52;7.95;;;;;;;14.40;100.00;102269.56;5026031;28;20025;-60
2023/05/28 05:58:34;;;;;;;31.73;8.35;;;;;;;14.64;100.00;102265.38;5030008;28;20026;-59
2023/05/28 06:00:59;;;;;;;22.48;8.52;;;;;;;14.74;100.00;102271.28;5030049;28;20018;-61
2023/05/28 06:03:27;;;;;;;26.48;8.27;;;;;;;14.77;100.00;102272.97;5030456;28;20107;-61
2023/05/28 06:05:52;;;;;;;19.00;7.32;;;;;;;14.90;100.00;102274.38;5031958;28;20035;-62
2023/05/28 06:08:18;;;;;;;24.17;8.02;;;;;;;14.70;100.00;102271.41;5032778;28;20022;-61
2023/05/28 06:10:43;;;;;;;29.15;7.68;;;;;;;14.72;100.00;102272.25;5030153;28;20073;-62
2023/05/28 06:13:08;;;;;;;25.98;7.53;;;;;;;14.78;100.00;102270.31;5033039;28;20034;-60
2023/05/28 06:15:34;;;;;;;15.70;7.25;;;;;;;14.85;100.00;102267.47;5032177;28;20021;-62
2023/05/28 06:18:00;;;;;;;19.88;8.20;;;;;;;14.93;100.00;102269.91;5022635;28;20570;-61
2023/05/28 06:20:27;;;;;;;22.55;7.88;;;;;;;15.10;100.00;102278.25;5009046;28;20034;-60
2023/05/28 06:22:52;;;;;;;25.05;8.07;;;;;;;15.13;100.00;102271.97;5027086;28;20037;-60
2023/05/28 06:25:18;;;;;;;29.08;8.13;;;;;;;15.11;100.00;102273.81;5016083;28;20061;-61
2023/05/28 06:27:43;;;;;;;17.67;7.25;;;;;;;15.11;100.00;102272.00;5026509;28;20029;-61
2023/05/28 06:30:10;;;;;;;21.67;7.57;;;;;;;15.25;100.00;102276.03;5029046;28;20024;-61
2023/05/28 06:32:35;;;;;;;19.25;7.10;;;;;;;15.34;100.00;102270.44;5024345;28;20028;-64
2023/05/28 06:35:01;;;;;;;28.05;8.23;;;;;;;15.39;100.00;102275.59;5028734;28;20026;-61
2023/05/28 06:37:26;;;;;;;19.13;7.32;;;;;;;15.32;100.00;102266.94;5028427;28;20037;-63
2023/05/28 06:39:52;;;;;;;16.63;7.30;;;;;;;15.34;100.00;102273.09;5027217;28;20026;-63
2023/05/28 06:42:17;;;;;;;24.35;7.13;;;;;;;15.37;100.00;102274.78;5014087;28;20034;-63
2023/05/28 06:44:42;;;;;;;24.38;7.72;;;;;;;15.48;100.00;102277.97;5027798;28;20014;-63
2023/05/28 06:47:08;;;;;;;20.80;7.43;;;;;;;15.54;100.00;102277.75;5028140;28;20025;-60
2023/05/28 06:49:33;;;;;;;20.48;7.15;;;;;;;15.66;100.00;102279.16;5027757;28;20029;-62
2023/05/28 06:51:59;;;;;;;22.90;7.95;;;;;;;15.73;100.00;102273.63;5027830;28;20048;-61
2023/05/28 06:54:25;;;;;;;18.27;7.60;;;;;;;15.84;100.00;102273.28;5027307;28;20491;-59
2023/05/28 06:56:50;;;;;;;21.38;7.65;;;;;;;15.86;100.00;102272.31;5025318;28;20100;-61
2023/05/28 06:59:15;;;;;;;24.42;7.85;;;;;;;15.94;100.00;102273.84;5027579;28;20032;-63
2023/05/28 07:01:41;;;;;;;23.75;7.65;;;;;;;15.88;100.00;102275.81;5027759;28;20100;-61
2023/05/28 07:04:06;;;;;;;23.63;7.85;;;;;;;15.96;100.00;102270.28;5026518;28;20029;-62
2023/05/28 07:06:32;;;;;;;26.35;7.13;;;;;;;16.02;100.00;102271.84;5024081;28;20033;-63
2023/05/28 07:08:57;;;;;;;24.10;8.13;;;;;;;16.08;100.00;102276.97;5005684;28;20361;-62
2023/05/28 07:11:23;;;;;;;22.25;7.75;;;;;;;16.30;100.00;102281.50;5012591;28;20042;-62
2023/05/28 07:13:48;;;;;;;19.35;7.13;;;;;;;16.28;100.00;102288.66;5012608;28;20030;-59
2023/05/28 07:16:13;;;;;;;22.10;8.20;;;;;;;16.49;100.00;102291.47;5023511;28;20109;-61
2023/05/28 07:18:39;;;;;;;20.40;7.03;;;;;;;16.70;100.00;102289.00;5019283;28;20022;-62
2023/05/28 07:21:07;;;;;;;23.77;7.72;;;;;;;16.70;100.00;102289.84;4984454;28;20534;-60
2023/05/28 07:23:33;;;;;;;19.92;6.90;;;;;;;16.76;100.00;102294.06;4995295;28;20092;-62
2023/05/28 07:25:58;;;;;;;20.60;6.88;;;;;;;17.02;100.00;102294.91;5003360;28;20411;-61
2023/05/28 07:28:24;;;;;;;23.42;7.00;;;;;;;17.27;100.00;102305.50;5012722;28;20590;-61
2023/05/28 07:30:49;;;;;;;19.13;7.18;;;;;;;17.07;100.00;102297.41;5023493;28;20033;-62
2023/05/28 07:33:15;;;;;;;24.02;7.35;;;;;;;17.16;100.00;102303.25;5020949;28;20056;-61
2023/05/28 07:35:40;;;;;;;24.80;6.93;;;;;;;17.29;100.00;102298.34;5024530;28;20068;-61
2023/05/28 07:38:10;;;;;;;14.82;5.97;;;;;;;17.35;100.00;102302.53;5020606;28;20510;-62
2023/05/28 07:40:35;;;;;;;19.15;7.40;;;;;;;17.62;100.00;102307.69;5004912;28;20349;-62
2023/05/28 07:43:01;;;;;;;20.50;6.95;;;;;;;17.48;100.00;102302.03;5006302;28;20461;-60
2023/05/28 07:45:26;;;;;;;20.95;6.75;;;;;;;17.36;100.00;102301.59;5025931;28;20029;-61
2023/05/28 07:47:51;;;;;;;14.95;6.50;;;;;;;17.38;100.00;102304.22;5024582;28;20079;-64
2023/05/28 07:50:18;;;;;;;18.83;6.22;;;;;;;17.58;100.00;102303.41;4996774;28;20089;-63
2023/05/28 07:52:43;;;;;;;19.92;6.68;;;;;;;17.66;100.00;102303.97;4997608;28;20018;-61
2023/05/28 07:55:09;;;;;;;17.98;6.50;;;;;;;17.77;100.00;102306.22;5001057;28;20413;-62
2023/05/28 07:57:34;;;;;;;16.13;6.32;;;;;;;17.95;100.00;102309.03;4997765;28;20098;-62
2023/05/28 08:00:00;;;;;;;24.10;6.60;;;;;;;17.86;100.00;102307.63;4997031;28;20057;-61
2023/05/28 08:02:26;;;;;;;22.08;7.07;;;;;;;18.16;100.00;102311.75;4990917;28;20029;-62
2023/05/28 08:04:51;;;;;;;16.10;6.65;;;;;;;18.12;100.00;102305.66;4997408;28;20014;-63
2023/05/28 08:07:16;;;;;;;21.15;6.90;;;;;;;18.23;100.00;102305.22;4997354;28;20503;-61
2023/05/28 08:09:42;;;;;;;19.38;6.28;;;;;;;18.35;100.00;102302.94;4995414;28;20034;-60
2023/05/28 08:12:08;;;;;;;22.00;6.25;;;;;;;18.34;100.00;102306.56;5002835;28;20045;-62
2023/05/28 08:14:34;;;;;;;19.38;6.00;;;;;;;18.34;100.00;102312.75;4996583;28;20030;-64
2023/05/28 08:16:59;;;;;;;18.70;6.60;;;;;;;18.47;100.00;102307.75;5004473;28;20051;-62
2023/05/28 08:19:26;;;;;;;18.30;6.07;;;;;;;18.50;100.00;102302.28;4996531;28;20093;-62
2023/05/28 08:21:51;;;;;;;20.65;6.43;;;;;;;18.54;100.00;102311.88;4994333;28;20105;-63
2023/05/28 08:24:18;;;;;;;20.02;6.28;;;;;;;18.61;100.00;102308.94;5001636;28;20495;-61
2023/05/28 08:26:43;;;;;;;19.90;5.97;;;;;;;18.73;100.00;102302.19;5011505;28;20053;-63
2023/05/28 08:29:09;;;;;;;19.20;6.45;;;;;;;18.91;100.00;102312.00;4986366;28;20034;-65
2023/05/28 08:31:34;;;;;;;17.02;5.20;;;;;;;19.09;100.00;102306.81;5001672;28;20039;-61
2023/05/28 08:33:59;;;;;;;17.88;5.55;;;;;;;19.27;100.00;102301.53;4993332;28;20033;-62
2023/05/28 08:36:25;;;;;;;18.15;5.70;;;;;;;19.29;100.00;102305.84;4996117;28;20038;-60
2023/05/28 08:38:50;;;;;;;17.75;6.32;;;;;;;19.54;99.94;102296.63;4996051;28;20022;-63
2023/05/28 08:41:16;;;;;;;17.70;5.85;;;;;;;19.77;99.15;102304.44;4998723;28;20092;-65
2023/05/28 08:43:42;;;;;;;22.73;5.75;;;;;;;19.75;99.66;102295.66;4999327;28;20033;-64
2023/05/28 08:46:07;;;;;;;19.08;5.85;;;;;;;19.75;98.41;102288.47;4996744;28;20018;-62
2023/05/28 08:48:34;;;;;;;17.35;6.13;;;;;;;19.65;97.22;102289.88;4996286;28;20033;-62
2023/05/28 08:51:00;;;;;;;14.90;5.60;;;;;;;19.42;98.91;102297.25;4994886;28;20048;-62
2023/05/28 08:53:29;;;;;;;17.85;5.85;;;;;;;19.48;97.71;102288.94;4989020;28;20019;-63
2023/05/28 08:55:55;;;;;;;15.13;5.38;;;;;;;19.57;97.14;102288.47;4995587;28;20057;-61
2023/05/28 08:58:20;;;;;;;17.35;5.45;;;;;;;19.62;96.85;102295.41;4996225;28;20431;-62
2023/05/28 09:00:47;;;;;;;18.35;5.80;;;;;;;19.36;96.83;102293.06;4997099;28;20030;-61
2023/05/28 09:03:12;;;;;;;14.23;5.40;;;;;;;19.19;98.05;102291.19;4995222;28;20022;-66
2023/05/28 09:05:38;;;;;;;15.52;5.10;;;;;;;19.51;96.52;102290.59;4994280;28;20528;-61
2023/05/28 09:08:09;;;;;;;16.65;5.50;;;;;;;19.70;96.52;102294.09;4993982;28;20121;-64
2023/05/28 09:10:36;;;;;;;14.20;5.00;;;;;;;19.72;96.04;102293.13;4992546;28;20443;-64
2023/05/28 09:13:02;;;;;;;17.63;5.55;;;;;;;19.55;95.72;102302.84;5000615;28;20027;-62
2023/05/28 09:15:29;;;;;;;15.88;5.60;;;;;;;19.60;94.13;102297.28;4992963;28;20142;-63
2023/05/28 09:17:55;;;;;;;14.45;4.93;;;;;;;19.40;93.61;102302.66;5000067;28;20019;-62
2023/05/28 09:20:20;;;;;;;14.98;5.05;;;;;;;19.31;95.99;102292.41;4997856;28;20048;-64
2023/05/28 09:22:57;;;;;;;21.67;5.47;;;;;;;19.72;93.67;102295.81;4994367;28;20019;-63
2023/05/28 09:25:24;;;;;;;16.15;5.60;;;;;;;20.12;93.89;102299.16;4995136;28;20527;-62
2023/05/28 09:27:49;;;;;;;18.23;5.45;;;;;;;19.96;94.03;102299.06;5003339;28;20097;-61
2023/05/28 09:30:14;;;;;;;14.60;5.00;;;;;;;20.00;91.93;102303.31;4997450;28;20136;-63
2023/05/28 09:32:40;;;;;;;18.17;5.38;;;;;;;19.84;93.55;102303.22;4999639;28;20022;-62
2023/05/28 09:35:07;;;;;;;20.73;5.57;;;;;;;19.64;93.37;102296.19;4996946;28;20030;-62
2023/05/28 09:37:32;;;;;;;16.15;5.38;;;;;;;19.78;92.54;102300.84;5014096;28;20025;-63
2023/05/28 09:40:03;;;;;;;16.95;5.30;;;;;;;19.62;94.34;102298.94;5013138;28;20045;-62
2023/05/28 09:42:38;;;;;;;15.13;4.60;;;;;;;20.04;92.74;102290.66;5008230;28;20207;-60
2023/05/28 09:45:04;;;;;;;16.95;4.93;;;;;;;19.90;91.62;102292.19;4994656;28;20026;-63
2023/05/28 09:47:29;;;;;;;20.17;5.82;;;;;;;19.74;92.93;102299.28;5010886;28;20099;-63
2023/05/28 09:49:54;;;;;;;15.82;5.60;;;;;;;19.63;94.19;102289.97;5028754;28;20501;-60
2023/05/28 09:52:21;;;;;;;20.77;6.13;;;;;;;19.59;93.47;102296.41;5026451;28;20029;-63
2023/05/28 09:54:55;;;;;;;15.20;5.40;;;;;;;19.42;95.17;102297.25;5027866;28;20033;-63
2023/05/28 09:57:25;;;;;;;16.48;5.18;;;;;;;19.54;93.51;102304.66;5021155;28;20049;-61
2023/05/28 09:59:54;;;;;;;13.85;5.07;;;;;;;19.62;93.49;102306.09;5006295;28;20633;-61
2023/05/28 10:02:34;;;;;;;17.52;5.95;;;;;;;19.23;93.51;102305.28;5009279;28;20029;-64
2023/05/28 10:05:02;;;;;;;15.73;6.03;;;;;;;18.98;92.79;102311.72;5026072;28;20053;-63
2023/05/28 10:07:28;;;;;;;16.52;5.85;;;;;;;18.86;94.36;102306.03;5021423;28;20163;-61
2023/05/28 10:09:54;;;;;;;18.23;6.20;;;;;;;19.10;95.25;102297.84;5003015;28;20038;-64
2023/05/28 10:12:23;;;;;;;20.15;6.32;;;;;;;19.18;95.08;102297.47;5003876;28;20026;-62
2023/05/28 10:14:49;;;;;;;17.10;5.95;;;;;;;19.23;94.99;102297.28;5024053;28;20018;-61
2023/05/28 10:17:14;;;;;;;17.58;5.85;;;;;;;19.19;93.16;102300.09;5024999;28;20017;-62
2023/05/28 10:19:40;;;;;;;17.15;5.97;;;;;;;19.40;94.19;102301.78;5022919;28;20119;-62
2023/05/28 10:22:07;;;;;;;18.40;5.45;;;;;;;19.48;92.69;102301.41;5007793;28;20022;-65
2023/05/28 10:24:32;;;;;;;20.60;6.05;;;;;;;19.28;95.82;102305.91;4994293;28;20034;-61
2023/05/28 10:26:58;;;;;;;17.88;5.55;;;;;;;19.39;92.11;102306.25;4984828;28;20030;-62
2023/05/28 10:29:23;;;;;;;16.70;6.13;;;;;;;19.54;92.29;102298.47;5011807;28;20422;-63
2023/05/28 10:31:59;;;;;;;18.70;6.05;;;;;;;19.29;93.48;102303.16;5027059;28;20105;-60
2023/05/28 10:34:32;;;;;;;20.95;6.03;;;;;;;19.62;94.17;102306.09;5009637;28;20030;-63
2023/05/28 10:37:00;;;;;;;18.92;5.40;;;;;;;19.89;92.82;102303.84;4996930;28;20049;-65
2023/05/28 10:39:26;;;;;;;16.08;6.30;;;;;;;19.62;94.53;102301.59;4997642;28;20087;-62
2023/05/28 10:41:51;;;;;;;15.88;5.75;;;;;;;19.79;94.58;102297.22;4992268;28;20030;-63
2023/05/28 10:44:18;;;;;;;17.55;5.85;;;;;;;20.25;91.41;102302.06;5011623;28;20329;-62
2023/05/28 10:46:43;;;;;;;16.55;6.28;;;;;;;20.18;90.96;102301.53;4999850;28;20026;-64
2023/05/28 10:49:15;;;;;;;20.67;6.45;;;;;;;20.12;91.83;102299.16;4998064;28;20022;-61
2023/05/28 10:51:56;;;;;;;14.38;5.70;;;;;;;20.47;94.30;102302.75;4995745;28;20087;-62
2023/05/28 10:54:24;;;;;;;15.18;5.78;;;;;;;21.12;91.57;102299.28;4998582;28;20035;-64
2023/05/28 10:57:09;;;;;;;16.13;6.25;;;;;;;21.05;89.52;102298.78;4997218;28;20022;-62
2023/05/28 10:59:38;;;;;;;16.20;5.45;;;;;;;21.10;90.52;102297.66;4998458;28;20030;-61
2023/05/28 11:02:06;;;;;;;19.25;5.57;;;;;;;20.90;91.07;102300.47;5002957;28;20033;-63